sensor_id;sensor_type;location;lat;lon;timestamp;P1;durP1;ratioP1;P2;durP2;ratioP2
50056;SDS011;36875;49.468;11.200;2022-09-28T00:01:26;1.92;;;0.80;;
50056;SDS011;36875;49.468;11.200;2022-09-28T00:03:52;1.35;;;0.65;;
50056;SDS011;36875;49.468;11.200;2022-09-28T00:06:21;2.40;;;0.75;;
50056;SDS011;36875;49.468;11.200;2022-09-28T00:08:48;1.70;;;0.65;;
50056;SDS011;36875;49.468;11.200;2022-09-28T00:11:14;3.10;;;0.70;;
50056;SDS011;36875;49.468;11.200;2022-09-28T00:13:43;1.55;;;0.70;;
50056;SDS011;36875;49.468;11.200;2022-09-28T00:16:10;3.20;;;0.80;;
50056;SDS011;36875;49.468;11.200;2022-09-28T00:18:39;1.92;;;0.70;;
50056;SDS011;36875;49.468;11.200;2022-09-28T00:21:06;0.80;;;0.60;;
50056;SDS011;36875;49.468;11.200;2022-09-28T00:23:34;1.10;;;0.60;;
50056;SDS011;36875;49.468;11.200;2022-09-28T00:26:20;0.82;;;0.65;;
50056;SDS011;36875;49.468;11.200;2022-09-28T00:28:46;1.20;;;0.63;;
50056;SDS011;36875;49.468;11.200;2022-09-28T00:31:11;1.35;;;0.60;;
50056;SDS011;36875;49.468;11.200;2022-09-28T00:33:37;1.50;;;0.80;;
50056;SDS011;36875;49.468;11.200;2022-09-28T00:36:06;1.00;;;0.50;;
50056;SDS011;36875;49.468;11.200;2022-09-28T00:38:31;1.35;;;0.73;;
50056;SDS011;36875;49.468;11.200;2022-09-28T00:40:57;0.68;;;0.43;;
50056;SDS011;36875;49.468;11.200;2022-09-28T00:43:23;1.20;;;0.63;;
50056;SDS011;36875;49.468;11.200;2022-09-28T00:45:51;1.25;;;0.77;;
50056;SDS011;36875;49.468;11.200;2022-09-28T00:48:23;1.42;;;0.70;;
50056;SDS011;36875;49.468;11.200;2022-09-28T00:50:51;1.08;;;0.75;;
50056;SDS011;36875;49.468;11.200;2022-09-28T00:53:18;1.45;;;0.73;;
50056;SDS011;36875;49.468;11.200;2022-09-28T00:55:49;1.15;;;0.43;;
50056;SDS011;36875;49.468;11.200;2022-09-28T01:00:46;1.70;;;0.50;;
50056;SDS011;36875;49.468;11.200;2022-09-28T01:03:12;1.05;;;0.70;;
50056;SDS011;36875;49.468;11.200;2022-09-28T01:05:38;0.55;;;0.52;;
50056;SDS011;36875;49.468;11.200;2022-09-28T01:08:04;1.17;;;0.50;;
50056;SDS011;36875;49.468;11.200;2022-09-28T01:10:32;1.55;;;0.55;;
50056;SDS011;36875;49.468;11.200;2022-09-28T01:12:58;1.02;;;0.60;;
50056;SDS011;36875;49.468;11.200;2022-09-28T01:15:25;1.05;;;0.52;;
50056;SDS011;36875;49.468;11.200;2022-09-28T01:17:55;1.40;;;0.70;;
50056;SDS011;36875;49.468;11.200;2022-09-28T01:20:44;0.95;;;0.57;;
50056;SDS011;36875;49.468;11.200;2022-09-28T01:23:24;0.70;;;0.40;;
50056;SDS011;36875;49.468;11.200;2022-09-28T01:26:15;1.40;;;0.50;;
50056;SDS011;36875;49.468;11.200;2022-09-28T01:28:55;1.63;;;0.60;;
50056;SDS011;36875;49.468;11.200;2022-09-28T01:31:26;2.17;;;0.55;;
50056;SDS011;36875;49.468;11.200;2022-09-28T01:33:58;2.42;;;0.55;;
50056;SDS011;36875;49.468;11.200;2022-09-28T01:36:27;1.08;;;0.50;;
50056;SDS011;36875;49.468;11.200;2022-09-28T01:38:59;0.65;;;0.50;;
50056;SDS011;36875;49.468;11.200;2022-09-28T01:41:31;0.80;;;0.40;;
50056;SDS011;36875;49.468;11.200;2022-09-28T01:44:04;0.43;;;0.43;;
50056;SDS011;36875;49.468;11.200;2022-09-28T01:46:33;0.93;;;0.50;;
50056;SDS011;36875;49.468;11.200;2022-09-28T01:49:02;1.00;;;0.40;;
50056;SDS011;36875;49.468;11.200;2022-09-28T01:51:33;0.40;;;0.40;;
50056;SDS011;36875;49.468;11.200;2022-09-28T01:54:04;1.10;;;0.50;;
50056;SDS011;36875;49.468;11.200;2022-09-28T01:56:39;2.40;;;0.43;;
50056;SDS011;36875;49.468;11.200;2022-09-28T01:59:09;1.23;;;0.50;;
50056;SDS011;36875;49.468;11.200;2022-09-28T02:01:38;1.42;;;0.40;;
50056;SDS011;36875;49.468;11.200;2022-09-28T02:04:06;2.42;;;0.70;;
50056;SDS011;36875;49.468;11.200;2022-09-28T02:06:37;1.20;;;0.50;;
50056;SDS011;36875;49.468;11.200;2022-09-28T02:09:10;1.42;;;0.47;;
50056;SDS011;36875;49.468;11.200;2022-09-28T02:11:42;1.65;;;0.60;;
50056;SDS011;36875;49.468;11.200;2022-09-28T02:14:11;1.42;;;0.40;;
50056;SDS011;36875;49.468;11.200;2022-09-28T02:16:42;0.60;;;0.35;;
50056;SDS011;36875;49.468;11.200;2022-09-28T02:19:09;1.00;;;0.35;;
50056;SDS011;36875;49.468;11.200;2022-09-28T02:21:38;0.40;;;0.30;;
50056;SDS011;36875;49.468;11.200;2022-09-28T02:24:09;2.17;;;0.50;;
50056;SDS011;36875;49.468;11.200;2022-09-28T02:26:41;1.27;;;0.50;;
50056;SDS011;36875;49.468;11.200;2022-09-28T02:29:11;0.88;;;0.50;;
50056;SDS011;36875;49.468;11.200;2022-09-28T02:31:39;0.30;;;0.30;;
50056;SDS011;36875;49.468;11.200;2022-09-28T02:34:05;0.88;;;0.47;;
50056;SDS011;36875;49.468;11.200;2022-09-28T02:36:30;0.55;;;0.40;;
50056;SDS011;36875;49.468;11.200;2022-09-28T02:38:57;0.80;;;0.25;;
50056;SDS011;36875;49.468;11.200;2022-09-28T02:41:26;1.58;;;0.88;;
50056;SDS011;36875;49.468;11.200;2022-09-28T02:44:05;1.50;;;0.40;;
50056;SDS011;36875;49.468;11.200;2022-09-28T02:46:41;0.20;;;0.20;;
50056;SDS011;36875;49.468;11.200;2022-09-28T02:49:14;0.50;;;0.32;;
50056;SDS011;36875;49.468;11.200;2022-09-28T02:51:50;0.93;;;0.30;;
50056;SDS011;36875;49.468;11.200;2022-09-28T02:54:35;1.38;;;0.80;;
50056;SDS011;36875;49.468;11.200;2022-09-28T02:57:11;0.45;;;0.43;;
50056;SDS011;36875;49.468;11.200;2022-09-28T02:59:51;0.43;;;0.30;;
50056;SDS011;36875;49.468;11.200;2022-09-28T03:02:26;1.52;;;0.30;;
50056;SDS011;36875;49.468;11.200;2022-09-28T03:05:00;0.55;;;0.35;;
50056;SDS011;36875;49.468;11.200;2022-09-28T03:07:34;0.60;;;0.40;;
50056;SDS011;36875;49.468;11.200;2022-09-28T03:10:05;1.77;;;0.60;;
50056;SDS011;36875;49.468;11.200;2022-09-28T03:12:35;1.23;;;0.47;;
50056;SDS011;36875;49.468;11.200;2022-09-28T03:15:07;1.65;;;0.50;;
50056;SDS011;36875;49.468;11.200;2022-09-28T03:17:35;0.52;;;0.30;;
50056;SDS011;36875;49.468;11.200;2022-09-28T03:20:00;0.43;;;0.28;;
50056;SDS011;36875;49.468;11.200;2022-09-28T03:22:29;1.00;;;0.50;;
50056;SDS011;36875;49.468;11.200;2022-09-28T03:24:54;1.75;;;0.43;;
50056;SDS011;36875;49.468;11.200;2022-09-28T03:27:20;0.52;;;0.40;;
50056;SDS011;36875;49.468;11.200;2022-09-28T03:29:45;1.33;;;0.40;;
50056;SDS011;36875;49.468;11.200;2022-09-28T03:32:12;1.67;;;0.40;;
50056;SDS011;36875;49.468;11.200;2022-09-28T03:34:38;0.30;;;0.30;;
50056;SDS011;36875;49.468;11.200;2022-09-28T03:37:03;0.68;;;0.50;;
50056;SDS011;36875;49.468;11.200;2022-09-28T03:39:29;0.65;;;0.40;;
50056;SDS011;36875;49.468;11.200;2022-09-28T03:41:55;0.85;;;0.30;;
50056;SDS011;36875;49.468;11.200;2022-09-28T03:44:20;0.45;;;0.30;;
50056;SDS011;36875;49.468;11.200;2022-09-28T03:46:45;0.73;;;0.50;;
50056;SDS011;36875;49.468;11.200;2022-09-28T03:49:12;2.60;;;0.40;;
50056;SDS011;36875;49.468;11.200;2022-09-28T03:51:38;0.60;;;0.28;;
50056;SDS011;36875;49.468;11.200;2022-09-28T03:54:03;1.45;;;0.30;;
50056;SDS011;36875;49.468;11.200;2022-09-28T03:56:29;0.38;;;0.30;;
50056;SDS011;36875;49.468;11.200;2022-09-28T03:58:54;1.10;;;0.20;;
50056;SDS011;36875;49.468;11.200;2022-09-28T04:01:20;0.85;;;0.43;;
50056;SDS011;36875;49.468;11.200;2022-09-28T04:03:46;0.77;;;0.30;;
50056;SDS011;36875;49.468;11.200;2022-09-28T04:06:13;1.52;;;0.40;;
50056;SDS011;36875;49.468;11.200;2022-09-28T04:08:39;0.68;;;0.32;;
50056;SDS011;36875;49.468;11.200;2022-09-28T04:11:04;1.17;;;0.60;;
50056;SDS011;36875;49.468;11.200;2022-09-28T04:13:30;0.32;;;0.20;;
50056;SDS011;36875;49.468;11.200;2022-09-28T04:15:56;1.27;;;0.45;;
50056;SDS011;36875;49.468;11.200;2022-09-28T04:18:23;0.68;;;0.30;;
50056;SDS011;36875;49.468;11.200;2022-09-28T04:20:56;1.60;;;0.40;;
50056;SDS011;36875;49.468;11.200;2022-09-28T04:23:24;0.65;;;0.40;;
50056;SDS011;36875;49.468;11.200;2022-09-28T04:25:51;0.65;;;0.40;;
50056;SDS011;36875;49.468;11.200;2022-09-28T04:28:17;1.25;;;0.45;;
50056;SDS011;36875;49.468;11.200;2022-09-28T04:31:01;2.38;;;0.40;;
50056;SDS011;36875;49.468;11.200;2022-09-28T04:33:27;1.95;;;0.50;;
50056;SDS011;36875;49.468;11.200;2022-09-28T04:35:53;0.63;;;0.22;;
50056;SDS011;36875;49.468;11.200;2022-09-28T04:38:18;0.82;;;0.50;;
50056;SDS011;36875;49.468;11.200;2022-09-28T04:40:45;1.38;;;0.55;;
50056;SDS011;36875;49.468;11.200;2022-09-28T04:43:12;0.68;;;0.25;;
50056;SDS011;36875;49.468;11.200;2022-09-28T04:45:38;0.47;;;0.30;;
50056;SDS011;36875;49.468;11.200;2022-09-28T04:48:05;2.55;;;0.47;;
50056;SDS011;36875;49.468;11.200;2022-09-28T04:50:30;1.05;;;0.32;;
50056;SDS011;36875;49.468;11.200;2022-09-28T04:52:56;1.13;;;0.38;;
50056;SDS011;36875;49.468;11.200;2022-09-28T04:55:21;2.22;;;0.30;;
50056;SDS011;36875;49.468;11.200;2022-09-28T04:57:48;0.68;;;0.30;;
50056;SDS011;36875;49.468;11.200;2022-09-28T05:00:14;0.20;;;0.20;;
50056;SDS011;36875;49.468;11.200;2022-09-28T05:02:40;0.63;;;0.30;;
50056;SDS011;36875;49.468;11.200;2022-09-28T05:05:06;2.17;;;0.30;;
50056;SDS011;36875;49.468;11.200;2022-09-28T05:07:32;0.60;;;0.22;;
50056;SDS011;36875;49.468;11.200;2022-09-28T05:09:57;1.27;;;0.43;;
50056;SDS011;36875;49.468;11.200;2022-09-28T05:12:23;1.25;;;0.55;;
50056;SDS011;36875;49.468;11.200;2022-09-28T05:14:50;1.38;;;0.30;;
50056;SDS011;36875;49.468;11.200;2022-09-28T05:17:15;2.25;;;0.60;;
50056;SDS011;36875;49.468;11.200;2022-09-28T05:19:41;4.22;;;1.02;;
50056;SDS011;36875;49.468;11.200;2022-09-28T05:22:07;1.58;;;0.43;;
50056;SDS011;36875;49.468;11.200;2022-09-28T05:27:03;2.95;;;0.52;;
50056;SDS011;36875;49.468;11.200;2022-09-28T05:29:29;2.70;;;0.60;;
50056;SDS011;36875;49.468;11.200;2022-09-28T05:31:55;1.40;;;0.55;;
50056;SDS011;36875;49.468;11.200;2022-09-28T05:34:21;3.35;;;0.80;;
50056;SDS011;36875;49.468;11.200;2022-09-28T05:36:46;3.15;;;0.50;;
50056;SDS011;36875;49.468;11.200;2022-09-28T05:39:12;1.52;;;0.60;;
50056;SDS011;36875;49.468;11.200;2022-09-28T05:41:37;1.35;;;0.40;;
50056;SDS011;36875;49.468;11.200;2022-09-28T05:44:03;0.90;;;0.40;;
50056;SDS011;36875;49.468;11.200;2022-09-28T05:46:28;3.85;;;0.50;;
50056;SDS011;36875;49.468;11.200;2022-09-28T05:48:55;2.15;;;0.57;;
50056;SDS011;36875;49.468;11.200;2022-09-28T05:51:21;2.75;;;0.50;;
50056;SDS011;36875;49.468;11.200;2022-09-28T05:53:48;1.75;;;0.35;;
50056;SDS011;36875;49.468;11.200;2022-09-28T05:56:14;1.13;;;0.32;;
50056;SDS011;36875;49.468;11.200;2022-09-28T05:58:39;2.55;;;0.90;;
50056;SDS011;36875;49.468;11.200;2022-09-28T06:01:04;2.60;;;0.52;;
50056;SDS011;36875;49.468;11.200;2022-09-28T06:03:30;2.10;;;0.50;;
50056;SDS011;36875;49.468;11.200;2022-09-28T06:05:58;3.25;;;1.05;;
50056;SDS011;36875;49.468;11.200;2022-09-28T06:08:24;3.00;;;0.70;;
50056;SDS011;36875;49.468;11.200;2022-09-28T06:10:49;0.95;;;0.50;;
50056;SDS011;36875;49.468;11.200;2022-09-28T06:13:15;4.00;;;0.73;;
50056;SDS011;36875;49.468;11.200;2022-09-28T06:15:41;2.30;;;0.50;;
50056;SDS011;36875;49.468;11.200;2022-09-28T06:18:08;2.72;;;0.40;;
50056;SDS011;36875;49.468;11.200;2022-09-28T06:20:37;1.55;;;0.60;;
50056;SDS011;36875;49.468;11.200;2022-09-28T06:23:06;1.80;;;0.60;;
50056;SDS011;36875;49.468;11.200;2022-09-28T06:25:32;2.63;;;0.50;;
50056;SDS011;36875;49.468;11.200;2022-09-28T06:27:58;2.35;;;0.50;;
50056;SDS011;36875;49.468;11.200;2022-09-28T06:30:25;2.42;;;0.60;;
50056;SDS011;36875;49.468;11.200;2022-09-28T06:32:53;3.10;;;0.50;;
50056;SDS011;36875;49.468;11.200;2022-09-28T06:35:19;4.28;;;0.60;;
50056;SDS011;36875;49.468;11.200;2022-09-28T06:37:45;1.40;;;0.68;;
50056;SDS011;36875;49.468;11.200;2022-09-28T06:40:12;1.10;;;0.35;;
50056;SDS011;36875;49.468;11.200;2022-09-28T06:42:38;5.20;;;0.60;;
50056;SDS011;36875;49.468;11.200;2022-09-28T06:45:06;1.80;;;0.63;;
50056;SDS011;36875;49.468;11.200;2022-09-28T06:47:32;3.40;;;0.50;;
50056;SDS011;36875;49.468;11.200;2022-09-28T06:49:57;2.30;;;0.60;;
50056;SDS011;36875;49.468;11.200;2022-09-28T06:52:23;1.05;;;0.43;;
50056;SDS011;36875;49.468;11.200;2022-09-28T06:54:49;3.58;;;0.52;;
50056;SDS011;36875;49.468;11.200;2022-09-28T06:57:16;1.60;;;0.50;;
50056;SDS011;36875;49.468;11.200;2022-09-28T06:59:42;1.67;;;0.50;;
50056;SDS011;36875;49.468;11.200;2022-09-28T07:02:07;0.98;;;0.50;;
50056;SDS011;36875;49.468;11.200;2022-09-28T07:04:34;4.57;;;0.40;;
50056;SDS011;36875;49.468;11.200;2022-09-28T07:07:00;3.17;;;0.50;;
50056;SDS011;36875;49.468;11.200;2022-09-28T07:09:25;1.08;;;0.50;;
50056;SDS011;36875;49.468;11.200;2022-09-28T07:11:51;2.60;;;0.75;;
50056;SDS011;36875;49.468;11.200;2022-09-28T07:14:18;5.20;;;0.98;;
50056;SDS011;36875;49.468;11.200;2022-09-28T07:16:45;8.90;;;1.33;;
50056;SDS011;36875;49.468;11.200;2022-09-28T07:19:11;8.32;;;1.40;;
50056;SDS011;36875;49.468;11.200;2022-09-28T07:21:36;5.97;;;1.27;;
50056;SDS011;36875;49.468;11.200;2022-09-28T07:24:02;15.52;;;1.98;;
50056;SDS011;36875;49.468;11.200;2022-09-28T07:26:28;10.27;;;2.28;;
50056;SDS011;36875;49.468;11.200;2022-09-28T07:28:53;8.90;;;2.28;;
50056;SDS011;36875;49.468;11.200;2022-09-28T07:31:23;7.55;;;1.83;;
50056;SDS011;36875;49.468;11.200;2022-09-28T07:33:49;16.23;;;3.20;;
50056;SDS011;36875;49.468;11.200;2022-09-28T07:36:15;14.98;;;2.70;;
50056;SDS011;36875;49.468;11.200;2022-09-28T07:38:44;12.20;;;2.67;;
50056;SDS011;36875;49.468;11.200;2022-09-28T07:41:10;12.23;;;2.50;;
50056;SDS011;36875;49.468;11.200;2022-09-28T07:43:36;13.45;;;2.92;;
50056;SDS011;36875;49.468;11.200;2022-09-28T07:46:04;17.00;;;3.47;;
50056;SDS011;36875;49.468;11.200;2022-09-28T07:48:36;12.20;;;2.58;;
50056;SDS011;36875;49.468;11.200;2022-09-28T07:51:03;14.32;;;2.88;;
50056;SDS011;36875;49.468;11.200;2022-09-28T07:53:29;10.07;;;2.38;;
50056;SDS011;36875;49.468;11.200;2022-09-28T07:55:55;16.17;;;2.83;;
50056;SDS011;36875;49.468;11.200;2022-09-28T07:58:30;11.45;;;2.40;;
50056;SDS011;36875;49.468;11.200;2022-09-28T08:00:57;18.15;;;3.28;;
50056;SDS011;36875;49.468;11.200;2022-09-28T08:03:25;11.82;;;2.45;;
50056;SDS011;36875;49.468;11.200;2022-09-28T08:05:55;12.50;;;2.53;;
50056;SDS011;36875;49.468;11.200;2022-09-28T08:08:22;10.48;;;2.50;;
50056;SDS011;36875;49.468;11.200;2022-09-28T08:10:47;11.43;;;2.70;;
50056;SDS011;36875;49.468;11.200;2022-09-28T08:13:17;11.75;;;2.75;;
50056;SDS011;36875;49.468;11.200;2022-09-28T08:15:42;11.55;;;2.95;;
50056;SDS011;36875;49.468;11.200;2022-09-28T08:18:09;11.45;;;2.63;;
50056;SDS011;36875;49.468;11.200;2022-09-28T08:20:34;11.68;;;2.60;;
50056;SDS011;36875;49.468;11.200;2022-09-28T08:23:21;9.90;;;2.55;;
50056;SDS011;36875;49.468;11.200;2022-09-28T08:25:50;11.02;;;2.42;;
50056;SDS011;36875;49.468;11.200;2022-09-28T08:28:19;12.88;;;2.45;;
50056;SDS011;36875;49.468;11.200;2022-09-28T08:30:46;9.45;;;2.38;;
50056;SDS011;36875;49.468;11.200;2022-09-28T08:33:13;13.77;;;2.60;;
50056;SDS011;36875;49.468;11.200;2022-09-28T08:35:40;9.93;;;2.42;;
50056;SDS011;36875;49.468;11.200;2022-09-28T08:38:06;13.00;;;2.60;;
50056;SDS011;36875;49.468;11.200;2022-09-28T08:40:35;10.20;;;2.78;;
50056;SDS011;36875;49.468;11.200;2022-09-28T08:43:13;8.98;;;2.50;;
50056;SDS011;36875;49.468;11.200;2022-09-28T08:45:49;11.65;;;2.53;;
50056;SDS011;36875;49.468;11.200;2022-09-28T08:48:16;9.40;;;2.40;;
50056;SDS011;36875;49.468;11.200;2022-09-28T08:51:04;12.07;;;2.50;;
50056;SDS011;36875;49.468;11.200;2022-09-28T08:53:34;10.65;;;2.40;;
50056;SDS011;36875;49.468;11.200;2022-09-28T08:56:08;8.63;;;2.08;;
50056;SDS011;36875;49.468;11.200;2022-09-28T08:58:39;7.40;;;2.22;;
50056;SDS011;36875;49.468;11.200;2022-09-28T09:01:09;11.00;;;2.38;;
50056;SDS011;36875;49.468;11.200;2022-09-28T09:03:43;8.13;;;2.13;;
50056;SDS011;36875;49.468;11.200;2022-09-28T09:06:13;8.57;;;2.15;;
50056;SDS011;36875;49.468;11.200;2022-09-28T09:08:47;8.65;;;2.25;;
50056;SDS011;36875;49.468;11.200;2022-09-28T09:11:30;6.28;;;1.85;;
50056;SDS011;36875;49.468;11.200;2022-09-28T09:14:09;8.68;;;1.98;;
50056;SDS011;36875;49.468;11.200;2022-09-28T09:16:54;7.80;;;2.00;;
50056;SDS011;36875;49.468;11.200;2022-09-28T09:19:32;14.93;;;2.13;;
50056;SDS011;36875;49.468;11.200;2022-09-28T09:22:01;6.10;;;1.60;;
50056;SDS011;36875;49.468;11.200;2022-09-28T09:24:40;8.60;;;1.98;;
50056;SDS011;36875;49.468;11.200;2022-09-28T09:27:17;9.30;;;2.72;;
50056;SDS011;36875;49.468;11.200;2022-09-28T09:29:55;7.80;;;2.03;;
50056;SDS011;36875;49.468;11.200;2022-09-28T09:32:35;9.93;;;2.25;;
50056;SDS011;36875;49.468;11.200;2022-09-28T09:35:12;9.68;;;2.13;;
50056;SDS011;36875;49.468;11.200;2022-09-28T09:37:50;11.23;;;2.20;;
50056;SDS011;36875;49.468;11.200;2022-09-28T09:40:32;8.98;;;2.20;;
50056;SDS011;36875;49.468;11.200;2022-09-28T09:43:30;7.78;;;2.50;;
50056;SDS011;36875;49.468;11.200;2022-09-28T09:46:09;9.80;;;2.47;;
50056;SDS011;36875;49.468;11.200;2022-09-28T09:48:41;8.50;;;2.40;;
50056;SDS011;36875;49.468;11.200;2022-09-28T09:51:16;10.77;;;2.25;;
50056;SDS011;36875;49.468;11.200;2022-09-28T09:53:49;6.40;;;1.95;;
50056;SDS011;36875;49.468;11.200;2022-09-28T09:56:25;11.35;;;2.47;;
50056;SDS011;36875;49.468;11.200;2022-09-28T09:58:58;6.80;;;2.17;;
50056;SDS011;36875;49.468;11.200;2022-09-28T10:01:31;10.95;;;2.10;;
50056;SDS011;36875;49.468;11.200;2022-09-28T10:03:59;5.68;;;1.88;;
50056;SDS011;36875;49.468;11.200;2022-09-28T10:06:27;8.70;;;2.10;;
50056;SDS011;36875;49.468;11.200;2022-09-28T10:08:57;7.53;;;1.92;;
50056;SDS011;36875;49.468;11.200;2022-09-28T10:13:57;7.60;;;2.03;;
50056;SDS011;36875;49.468;11.200;2022-09-28T10:16:23;11.30;;;1.98;;
50056;SDS011;36875;49.468;11.200;2022-09-28T10:18:49;6.82;;;1.70;;
50056;SDS011;36875;49.468;11.200;2022-09-28T10:21:14;6.57;;;1.77;;
50056;SDS011;36875;49.468;11.200;2022-09-28T10:23:42;6.25;;;1.90;;
50056;SDS011;36875;49.468;11.200;2022-09-28T10:26:09;8.07;;;2.00;;
50056;SDS011;36875;49.468;11.200;2022-09-28T10:28:42;7.30;;;1.75;;
50056;SDS011;36875;49.468;11.200;2022-09-28T10:34:02;5.43;;;1.80;;
50056;SDS011;36875;49.468;11.200;2022-09-28T10:36:28;9.25;;;2.00;;
50056;SDS011;36875;49.468;11.200;2022-09-28T10:39:02;7.72;;;1.83;;
50056;SDS011;36875;49.468;11.200;2022-09-28T10:41:28;6.20;;;1.70;;
50056;SDS011;36875;49.468;11.200;2022-09-28T10:43:56;5.53;;;1.90;;
50056;SDS011;36875;49.468;11.200;2022-09-28T10:46:30;6.88;;;1.70;;
50056;SDS011;36875;49.468;11.200;2022-09-28T10:48:58;6.28;;;1.65;;
50056;SDS011;36875;49.468;11.200;2022-09-28T10:51:38;6.78;;;1.77;;
50056;SDS011;36875;49.468;11.200;2022-09-28T10:54:04;5.05;;;2.10;;
50056;SDS011;36875;49.468;11.200;2022-09-28T10:56:37;8.10;;;1.90;;
50056;SDS011;36875;49.468;11.200;2022-09-28T10:59:04;6.85;;;2.53;;
50056;SDS011;36875;49.468;11.200;2022-09-28T11:01:47;5.60;;;1.48;;
50056;SDS011;36875;49.468;11.200;2022-09-28T11:06:46;5.85;;;1.45;;
50056;SDS011;36875;49.468;11.200;2022-09-28T11:09:20;5.22;;;1.58;;
50056;SDS011;36875;49.468;11.200;2022-09-28T11:11:50;7.55;;;1.63;;
50056;SDS011;36875;49.468;11.200;2022-09-28T11:14:20;7.03;;;1.45;;
50056;SDS011;36875;49.468;11.200;2022-09-28T11:19:41;1.57;;;0.73;;
50056;SDS011;36875;49.468;11.200;2022-09-28T11:22:18;5.35;;;0.88;;
50056;SDS011;36875;49.468;11.200;2022-09-28T11:24:45;6.03;;;0.82;;
50056;SDS011;36875;49.468;11.200;2022-09-28T11:27:18;1.60;;;0.77;;
50056;SDS011;36875;49.468;11.200;2022-09-28T11:29:45;2.63;;;0.93;;
50056;SDS011;36875;49.468;11.200;2022-09-28T11:32:20;1.85;;;0.70;;
50056;SDS011;36875;49.468;11.200;2022-09-28T11:34:48;3.38;;;0.73;;
50056;SDS011;36875;49.468;11.200;2022-09-28T11:37:20;2.92;;;0.55;;
50056;SDS011;36875;49.468;11.200;2022-09-28T11:40:02;2.33;;;0.70;;
50056;SDS011;36875;49.468;11.200;2022-09-28T11:42:39;4.25;;;0.88;;
50056;SDS011;36875;49.468;11.200;2022-09-28T11:45:20;3.03;;;1.23;;
50056;SDS011;36875;49.468;11.200;2022-09-28T11:47:56;2.33;;;0.73;;
50056;SDS011;36875;49.468;11.200;2022-09-28T11:50:28;3.67;;;0.80;;
50056;SDS011;36875;49.468;11.200;2022-09-28T11:53:07;1.42;;;0.57;;
50056;SDS011;36875;49.468;11.200;2022-09-28T11:55:41;1.90;;;0.75;;
50056;SDS011;36875;49.468;11.200;2022-09-28T11:58:11;2.72;;;0.70;;
50056;SDS011;36875;49.468;11.200;2022-09-28T12:00:42;1.65;;;0.60;;
50056;SDS011;36875;49.468;11.200;2022-09-28T12:03:12;2.63;;;0.70;;
50056;SDS011;36875;49.468;11.200;2022-09-28T12:05:42;3.00;;;1.08;;
50056;SDS011;36875;49.468;11.200;2022-09-28T12:08:13;4.47;;;0.90;;
50056;SDS011;36875;49.468;11.200;2022-09-28T12:10:44;2.13;;;0.70;;
50056;SDS011;36875;49.468;11.200;2022-09-28T12:13:16;3.47;;;1.10;;
50056;SDS011;36875;49.468;11.200;2022-09-28T12:15:45;4.88;;;1.00;;
50056;SDS011;36875;49.468;11.200;2022-09-28T12:18:16;2.40;;;0.85;;
50056;SDS011;36875;49.468;11.200;2022-09-28T12:20:47;3.08;;;1.17;;
50056;SDS011;36875;49.468;11.200;2022-09-28T12:23:19;3.85;;;1.00;;
50056;SDS011;36875;49.468;11.200;2022-09-28T12:25:52;4.18;;;1.02;;
50056;SDS011;36875;49.468;11.200;2022-09-28T12:28:24;5.47;;;0.80;;
50056;SDS011;36875;49.468;11.200;2022-09-28T12:30:55;3.60;;;0.93;;
50056;SDS011;36875;49.468;11.200;2022-09-28T12:33:27;4.40;;;0.90;;
50056;SDS011;36875;49.468;11.200;2022-09-28T12:36:01;4.22;;;1.20;;
50056;SDS011;36875;49.468;11.200;2022-09-28T12:38:42;3.53;;;0.70;;
50056;SDS011;36875;49.468;11.200;2022-09-28T12:41:23;6.72;;;1.10;;
50056;SDS011;36875;49.468;11.200;2022-09-28T12:44:24;4.95;;;0.80;;
50056;SDS011;36875;49.468;11.200;2022-09-28T12:47:13;5.43;;;0.90;;
50056;SDS011;36875;49.468;11.200;2022-09-28T12:49:59;6.10;;;1.60;;
50056;SDS011;36875;49.468;11.200;2022-09-28T12:52:38;6.25;;;0.93;;
50056;SDS011;36875;49.468;11.200;2022-09-28T12:58:05;6.20;;;1.00;;
50056;SDS011;36875;49.468;11.200;2022-09-28T13:00:45;9.82;;;1.05;;
50056;SDS011;36875;49.468;11.200;2022-09-28T13:06:33;3.30;;;0.95;;
50056;SDS011;36875;49.468;11.200;2022-09-28T13:09:12;5.60;;;0.88;;
50056;SDS011;36875;49.468;11.200;2022-09-28T13:11:42;4.05;;;0.82;;
50056;SDS011;36875;49.468;11.200;2022-09-28T13:14:23;4.88;;;1.17;;
50056;SDS011;36875;49.468;11.200;2022-09-28T13:17:12;4.00;;;1.00;;
50056;SDS011;36875;49.468;11.200;2022-09-28T13:19:43;4.50;;;1.08;;
50056;SDS011;36875;49.468;11.200;2022-09-28T13:22:18;20.08;;;2.13;;
50056;SDS011;36875;49.468;11.200;2022-09-28T13:24:52;3.47;;;1.05;;
50056;SDS011;36875;49.468;11.200;2022-09-28T13:27:25;3.60;;;0.82;;
50056;SDS011;36875;49.468;11.200;2022-09-28T13:29:54;3.45;;;1.08;;
50056;SDS011;36875;49.468;11.200;2022-09-28T13:32:23;7.57;;;2.53;;
50056;SDS011;36875;49.468;11.200;2022-09-28T13:34:50;17.15;;;4.30;;
50056;SDS011;36875;49.468;11.200;2022-09-28T13:37:20;21.42;;;5.20;;
50056;SDS011;36875;49.468;11.200;2022-09-28T13:39:50;22.50;;;6.07;;
50056;SDS011;36875;49.468;11.200;2022-09-28T13:42:23;28.23;;;5.95;;
50056;SDS011;36875;49.468;11.200;2022-09-28T13:45:07;21.85;;;5.70;;
50056;SDS011;36875;49.468;11.200;2022-09-28T13:47:59;17.13;;;5.15;;
50056;SDS011;36875;49.468;11.200;2022-09-28T13:50:37;19.42;;;5.47;;
50056;SDS011;36875;49.468;11.200;2022-09-28T13:53:19;21.38;;;5.32;;
50056;SDS011;36875;49.468;11.200;2022-09-28T13:55:55;19.17;;;5.20;;
50056;SDS011;36875;49.468;11.200;2022-09-28T13:58:26;16.50;;;5.10;;
50056;SDS011;36875;49.468;11.200;2022-09-28T14:03:25;13.20;;;4.18;;
50056;SDS011;36875;49.468;11.200;2022-09-28T14:06:06;16.33;;;4.65;;
50056;SDS011;36875;49.468;11.200;2022-09-28T14:08:38;17.67;;;4.07;;
50056;SDS011;36875;49.468;11.200;2022-09-28T14:14:23;13.00;;;4.35;;
50056;SDS011;36875;49.468;11.200;2022-09-28T14:20:19;12.07;;;3.70;;
50056;SDS011;36875;49.468;11.200;2022-09-28T14:22:58;10.68;;;3.30;;
50056;SDS011;36875;49.468;11.200;2022-09-28T14:25:42;8.13;;;3.40;;
50056;SDS011;36875;49.468;11.200;2022-09-28T14:28:22;13.02;;;3.25;;
50056;SDS011;36875;49.468;11.200;2022-09-28T14:31:04;13.73;;;4.05;;
50056;SDS011;36875;49.468;11.200;2022-09-28T14:33:32;14.75;;;4.00;;
50056;SDS011;36875;49.468;11.200;2022-09-28T14:35:59;14.70;;;3.95;;
50056;SDS011;36875;49.468;11.200;2022-09-28T14:38:29;12.50;;;3.50;;
50056;SDS011;36875;49.468;11.200;2022-09-28T14:41:24;17.95;;;3.55;;
50056;SDS011;36875;49.468;11.200;2022-09-28T14:43:58;11.52;;;3.42;;
50056;SDS011;36875;49.468;11.200;2022-09-28T14:46:27;12.20;;;2.78;;
50056;SDS011;36875;49.468;11.200;2022-09-28T14:49:03;12.50;;;3.08;;
50056;SDS011;36875;49.468;11.200;2022-09-28T14:52:00;13.73;;;4.00;;
50056;SDS011;36875;49.468;11.200;2022-09-28T14:54:27;12.35;;;3.58;;
50056;SDS011;36875;49.468;11.200;2022-09-28T14:57:04;14.20;;;3.53;;
50056;SDS011;36875;49.468;11.200;2022-09-28T14:59:41;9.45;;;2.92;;
50056;SDS011;36875;49.468;11.200;2022-09-28T15:02:11;10.45;;;3.25;;
50056;SDS011;36875;49.468;11.200;2022-09-28T15:04:44;13.35;;;3.00;;
50056;SDS011;36875;49.468;11.200;2022-09-28T15:07:17;12.37;;;2.43;;
50056;SDS011;36875;49.468;11.200;2022-09-28T15:09:46;16.23;;;3.40;;
50056;SDS011;36875;49.468;11.200;2022-09-28T15:12:13;9.57;;;3.03;;
50056;SDS011;36875;49.468;11.200;2022-09-28T15:14:44;19.95;;;5.18;;
50056;SDS011;36875;49.468;11.200;2022-09-28T15:17:15;17.92;;;3.85;;
50056;SDS011;36875;49.468;11.200;2022-09-28T15:19:45;18.92;;;3.35;;
50056;SDS011;36875;49.468;11.200;2022-09-28T15:22:28;176.50;;;11.82;;